sensor_id;sensor_type;location;lat;lon;timestamp;pressure;altitude;pressure_sealevel;temperature;humidity
55664;BME280;41540;57.880;12.164;2023-06-10T00:01:52;101420.88;;;12.00;nan
55664;BME280;41540;57.880;12.164;2023-06-10T00:11:55;101356.19;;;11.43;nan
55664;BME280;41540;57.880;12.164;2023-06-10T00:21:56;101452.28;;;11.78;nan
55664;BME280;41540;57.880;12.164;2023-06-10T00:31:57;101500.28;;;11.92;nan
55664;BME280;41540;57.880;12.164;2023-06-10T00:41:58;101309.09;;;10.65;nan
55664;BME280;41540;57.880;12.164;2023-06-10T00:51:58;101490.56;;;11.55;nan
55664;BME280;41540;57.880;12.164;2023-06-10T01:01:59;101452.78;;;11.04;nan
55664;BME280;41540;57.880;12.164;2023-06-10T01:22:48;101441.00;;;10.58;nan
55664;BME280;41540;57.880;12.164;2023-06-10T01:32:50;101528.72;;;11.00;nan
55664;BME280;41540;57.880;12.164;2023-06-10T01:42:51;101401.66;;;9.89;nan
55664;BME280;41540;57.880;12.164;2023-06-10T01:52:52;101531.75;;;10.33;nan
55664;BME280;41540;57.880;12.164;2023-06-10T02:02:52;101480.03;;;9.85;nan
55664;BME280;41540;57.880;12.164;2023-06-10T02:12:53;101522.84;;;10.01;nan
55664;BME280;41540;57.880;12.164;2023-06-10T02:22:53;101495.53;;;9.61;nan
55664;BME280;41540;57.880;12.164;2023-06-10T02:32:54;101520.03;;;9.71;nan
55664;BME280;41540;57.880;12.164;2023-06-10T02:42:57;101446.09;;;9.29;nan
55664;BME280;41540;57.880;12.164;2023-06-10T02:52:57;101503.66;;;9.96;nan
55664;BME280;41540;57.880;12.164;2023-06-10T03:02:58;101449.22;;;12.62;nan
55664;BME280;41540;57.880;12.164;2023-06-10T03:13:03;101499.75;;;13.95;nan
55664;BME280;41540;57.880;12.164;2023-06-10T03:23:04;101431.41;;;14.65;nan
55664;BME280;41540;57.880;12.164;2023-06-10T03:33:06;101447.41;;;15.63;nan
55664;BME280;41540;57.880;12.164;2023-06-10T03:43:06;101566.88;;;17.99;nan
55664;BME280;41540;57.880;12.164;2023-06-10T03:53:07;101568.59;;;19.72;nan
55664;BME280;41540;57.880;12.164;2023-06-10T04:03:08;101509.84;;;19.64;nan
55664;BME280;41540;57.880;12.164;2023-06-10T04:13:09;101541.31;;;19.92;nan
55664;BME280;41540;57.880;12.164;2023-06-10T04:23:09;101516.34;;;23.12;nan
55664;BME280;41540;57.880;12.164;2023-06-10T04:33:10;101496.59;;;21.73;nan
55664;BME280;41540;57.880;12.164;2023-06-10T04:43:10;101500.91;;;20.05;nan
55664;BME280;41540;57.880;12.164;2023-06-10T04:53:11;101525.78;;;20.80;nan
55664;BME280;41540;57.880;12.164;2023-06-10T05:03:11;101518.50;;;23.37;nan
55664;BME280;41540;57.880;12.164;2023-06-10T05:13:11;101529.59;;;20.39;nan
55664;BME280;41540;57.880;12.164;2023-06-10T05:23:12;101520.28;;;21.00;nan
55664;BME280;41540;57.880;12.164;2023-06-10T05:33:12;101492.06;;;21.81;nan
55664;BME280;41540;57.880;12.164;2023-06-10T05:43:13;101561.03;;;20.57;nan
55664;BME280;41540;57.880;12.164;2023-06-10T05:53:14;101514.50;;;16.48;nan
55664;BME280;41540;57.880;12.164;2023-06-10T06:03:15;101504.53;;;16.07;nan
55664;BME280;41540;57.880;12.164;2023-06-10T06:13:15;101452.94;;;16.97;nan
55664;BME280;41540;57.880;12.164;2023-06-10T06:23:16;101489.63;;;17.04;nan
55664;BME280;41540;57.880;12.164;2023-06-10T06:33:16;101296.34;;;15.13;nan
55664;BME280;41540;57.880;12.164;2023-06-10T06:43:18;101346.38;;;15.54;nan
55664;BME280;41540;57.880;12.164;2023-06-10T06:53:19;101615.28;;;15.51;nan
55664;BME280;41540;57.880;12.164;2023-06-10T07:03:19;101595.06;;;16.86;nan
55664;BME280;41540;57.880;12.164;2023-06-10T07:13:20;101590.44;;;17.88;nan
55664;BME280;41540;57.880;12.164;2023-06-10T07:23:20;101469.91;;;18.02;nan
55664;BME280;41540;57.880;12.164;2023-06-10T07:33:21;101503.16;;;18.32;nan
55664;BME280;41540;57.880;12.164;2023-06-10T07:43:21;101526.53;;;17.57;nan
55664;BME280;41540;57.880;12.164;2023-06-10T07:53:21;101481.44;;;16.61;nan
55664;BME280;41540;57.880;12.164;2023-06-10T08:03:22;101517.88;;;17.84;nan
55664;BME280;41540;57.880;12.164;2023-06-10T08:13:22;101302.72;;;16.62;nan
55664;BME280;41540;57.880;12.164;2023-06-10T08:23:23;101430.41;;;17.39;nan
55664;BME280;41540;57.880;12.164;2023-06-10T08:33:23;101608.00;;;19.58;nan
55664;BME280;41540;57.880;12.164;2023-06-10T08:43:44;101604.59;;;19.36;nan
55664;BME280;41540;57.880;12.164;2023-06-10T08:53:56;101594.66;;;20.14;nan
55664;BME280;41540;57.880;12.164;2023-06-10T09:03:59;101611.56;;;19.48;nan
55664;BME280;41540;57.880;12.164;2023-06-10T09:13:59;101483.00;;;18.73;nan
55664;BME280;41540;57.880;12.164;2023-06-10T09:24:00;101580.97;;;19.27;nan
55664;BME280;41540;57.880;12.164;2023-06-10T09:34:14;101584.63;;;20.76;nan
55664;BME280;41540;57.880;12.164;2023-06-10T09:44:16;101590.44;;;19.85;nan
55664;BME280;41540;57.880;12.164;2023-06-10T09:54:17;101487.38;;;18.52;nan
55664;BME280;41540;57.880;12.164;2023-06-10T10:04:26;101465.19;;;19.67;nan
55664;BME280;41540;57.880;12.164;2023-06-10T10:14:28;101440.53;;;19.93;nan
55664;BME280;41540;57.880;12.164;2023-06-10T10:24:34;101518.78;;;20.76;nan
55664;BME280;41540;57.880;12.164;2023-06-10T10:34:49;101571.56;;;21.52;nan
55664;BME280;41540;57.880;12.164;2023-06-10T10:44:50;101459.69;;;20.05;nan
55664;BME280;41540;57.880;12.164;2023-06-10T10:54:52;101567.66;;;21.05;nan
55664;BME280;41540;57.880;12.164;2023-06-10T11:04:54;101417.31;;;20.39;nan
55664;BME280;41540;57.880;12.164;2023-06-10T11:14:55;101533.94;;;20.41;nan
55664;BME280;41540;57.880;12.164;2023-06-10T11:24:56;101504.38;;;22.41;nan
55664;BME280;41540;57.880;12.164;2023-06-10T11:34:59;101519.81;;;21.41;nan
55664;BME280;41540;57.880;12.164;2023-06-10T11:45:00;101534.03;;;21.98;nan
55664;BME280;41540;57.880;12.164;2023-06-10T11:55:03;101487.38;;;23.06;nan
55664;BME280;41540;57.880;12.164;2023-06-10T12:05:14;101508.56;;;21.97;nan
55664;BME280;41540;57.880;12.164;2023-06-10T12:15:23;101420.88;;;23.27;nan
55664;BME280;41540;57.880;12.164;2023-06-10T12:25:27;101515.75;;;21.87;nan
55664;BME280;41540;57.880;12.164;2023-06-10T12:35:27;101449.66;;;22.51;nan
55664;BME280;41540;57.880;12.164;2023-06-10T12:45:33;101384.88;;;21.78;nan
55664;BME280;41540;57.880;12.164;2023-06-10T12:55:34;101461.06;;;23.00;nan
55664;BME280;41540;57.880;12.164;2023-06-10T13:05:35;101410.66;;;23.12;nan
55664;BME280;41540;57.880;12.164;2023-06-10T13:15:38;101390.13;;;22.34;nan
55664;BME280;41540;57.880;12.164;2023-06-10T13:25:39;101325.53;;;22.52;nan
55664;BME280;41540;57.880;12.164;2023-06-10T13:35:40;101421.75;;;24.04;nan
55664;BME280;41540;57.880;12.164;2023-06-10T13:45:41;101363.22;;;23.82;nan
55664;BME280;41540;57.880;12.164;2023-06-10T13:55:41;101407.19;;;23.08;nan
55664;BME280;41540;57.880;12.164;2023-06-10T14:05:42;101411.59;;;24.58;nan
55664;BME280;41540;57.880;12.164;2023-06-10T14:15:42;101418.72;;;23.46;nan
55664;BME280;41540;57.880;12.164;2023-06-10T14:25:43;101408.59;;;23.64;nan
55664;BME280;41540;57.880;12.164;2023-06-10T14:35:44;101372.81;;;23.49;nan
55664;BME280;41540;57.880;12.164;2023-06-10T14:45:44;101365.06;;;23.79;nan
55664;BME280;41540;57.880;12.164;2023-06-10T14:55:45;101373.53;;;24.27;nan
55664;BME280;41540;57.880;12.164;2023-06-10T15:05:45;101399.88;;;25.56;nan
55664;BME280;41540;57.880;12.164;2023-06-10T15:15:46;101264.06;;;23.97;nan
55664;BME280;41540;57.880;12.164;2023-06-10T15:25:46;101353.75;;;24.74;nan
55664;BME280;41540;57.880;12.164;2023-06-10T15:35:46;101200.34;;;23.38;nan
55664;BME280;41540;57.880;12.164;2023-06-10T15:45:47;101369.97;;;24.28;nan
55664;BME280;41540;57.880;12.164;2023-06-10T15:55:47;101224.44;;;22.88;nan
55664;BME280;41540;57.880;12.164;2023-06-10T16:05:48;101319.56;;;23.27;nan
55664;BME280;41540;57.880;12.164;2023-06-10T16:15:48;101236.72;;;22.89;nan
55664;BME280;41540;57.880;12.164;2023-06-10T16:25:48;101323.44;;;22.68;nan
55664;BME280;41540;57.880;12.164;2023-06-10T16:35:49;101310.50;;;22.56;nan
55664;BME280;41540;57.880;12.164;2023-06-10T16:45:49;101276.97;;;22.16;nan
55664;BME280;41540;57.880;12.164;2023-06-10T16:55:49;101349.41;;;22.48;nan
55664;BME280;41540;57.880;12.164;2023-06-10T17:05:50;101242.81;;;21.60;nan
55664;BME280;41540;57.880;12.164;2023-06-10T17:15:50;101296.09;;;21.79;nan
55664;BME280;41540;57.880;12.164;2023-06-10T17:25:51;101302.50;;;21.64;nan
55664;BME280;41540;57.880;12.164;2023-06-10T17:35:51;101296.63;;;21.47;nan
55664;BME280;41540;57.880;12.164;2023-06-10T17:45:52;101290.63;;;21.34;nan
55664;BME280;41540;57.880;12.164;2023-06-10T17:55:52;101243.31;;;20.67;nan
55664;BME280;41540;57.880;12.164;2023-06-10T18:05:54;101315.56;;;21.11;nan
55664;BME280;41540;57.880;12.164;2023-06-10T18:15:55;101319.47;;;20.81;nan
55664;BME280;41540;57.880;12.164;2023-06-10T18:25:55;101330.28;;;19.65;nan
55664;BME280;41540;57.880;12.164;2023-06-10T18:35:56;101386.53;;;19.36;nan
55664;BME280;41540;57.880;12.164;2023-06-10T18:45:57;101284.59;;;18.27;nan
55664;BME280;41540;57.880;12.164;2023-06-10T18:55:58;101354.50;;;18.40;nan
55664;BME280;41540;57.880;12.164;2023-06-10T19:06:01;101289.91;;;17.64;nan
55664;BME280;41540;57.880;12.164;2023-06-10T19:16:02;101363.22;;;17.58;nan
55664;BME280;41540;57.880;12.164;2023-06-10T19:26:03;101368.41;;;17.27;nan
55664;BME280;41540;57.880;12.164;2023-06-10T19:36:04;101384.94;;;17.07;nan
55664;BME280;41540;57.880;12.164;2023-06-10T19:46:04;101390.78;;;16.60;nan
55664;BME280;41540;57.880;12.164;2023-06-10T19:56:05;101397.38;;;16.06;nan
55664;BME280;41540;57.880;12.164;2023-06-10T20:06:07;101163.66;;;14.62;nan
55664;BME280;41540;57.880;12.164;2023-06-10T20:16:08;101299.72;;;15.02;nan
55664;BME280;41540;57.880;12.164;2023-06-10T20:26:09;101432.38;;;15.39;nan
55664;BME280;41540;57.880;12.164;2023-06-10T20:36:09;101342.72;;;14.64;nan
55664;BME280;41540;57.880;12.164;2023-06-10T20:46:10;101329.16;;;14.28;nan
55664;BME280;41540;57.880;12.164;2023-06-10T20:56:10;101411.88;;;14.40;nan
55664;BME280;41540;57.880;12.164;2023-06-10T21:06:12;101425.22;;;14.05;nan
55664;BME280;41540;57.880;12.164;2023-06-10T21:16:12;101438.38;;;13.64;nan
55664;BME280;41540;57.880;12.164;2023-06-10T21:26:13;101467.69;;;13.99;nan
55664;BME280;41540;57.880;12.164;2023-06-10T21:36:14;101474.16;;;14.21;nan
55664;BME280;41540;57.880;12.164;2023-06-10T21:46:14;101356.47;;;13.45;nan
55664;BME280;41540;57.880;12.164;2023-06-10T21:56:14;101272.09;;;12.88;nan
55664;BME280;41540;57.880;12.164;2023-06-10T22:06:15;101559.84;;;14.55;nan
55664;BME280;41540;57.880;12.164;2023-06-10T22:16:16;101523.75;;;14.76;nan
55664;BME280;41540;57.880;12.164;2023-06-10T22:26:16;101562.19;;;14.88;nan
55664;BME280;41540;57.880;12.164;2023-06-10T22:36:17;101577.66;;;14.77;nan
55664;BME280;41540;57.880;12.164;2023-06-10T22:46:17;101509.25;;;13.95;nan
55664;BME280;41540;57.880;12.164;2023-06-10T23:06:28;101565.28;;;13.73;nan
55664;BME280;41540;57.880;12.164;2023-06-10T23:16:28;101574.56;;;13.60;nan
55664;BME280;41540;57.880;12.164;2023-06-10T23:26:28;101533.28;;;13.37;nan
55664;BME280;41540;57.880;12.164;2023-06-10T23:36:29;101624.75;;;13.54;nan
55664;BME280;41540;57.880;12.164;2023-06-10T23:46:35;101601.38;;;13.19;nan
55664;BME280;41540;57.880;12.164;2023-06-10T23:56:35;101642.91;;;13.15;nan
